Time;durP1;ratioP1;P1;durP2;ratioP2;P2;SDS_P1;SDS_P2;PMS_P1;PMS_P2;Temp;Humidity;BMP_temperature;BMP_pressure;BME280_temperature;BME280_humidity;BME280_pressure;Samples;Min_cycle;Max_cycle;Signal;HPM_P1;HPM_P2
2022/07/31 00:01:38;;;;;;;16.93;7.07;;;18.90;1.00;;;;;;6252940;22;21008;-78
2022/07/31 00:04:05;;;;;;;9.67;6.47;;;18.90;1.00;;;;;;6254846;22;20850;-78
2022/07/31 00:06:33;;;;;;;10.07;6.50;;;18.80;1.00;;;;;;6254692;22;20415;-78
2022/07/31 00:09:00;;;;;;;13.37;6.70;;;18.80;1.00;;;;;;6258396;22;20447;-79
2022/07/31 00:11:31;;;;;;;11.17;6.43;;;18.80;1.00;;;;;;6254901;22;21067;-78
2022/07/31 00:13:58;;;;;;;11.00;6.37;;;18.80;1.00;;;;;;6256487;22;20491;-77
2022/07/31 00:16:34;;;;;;;10.80;6.63;;;18.80;1.00;;;;;;6254237;22;20406;-78
2022/07/31 00:19:01;;;;;;;10.40;7.00;;;18.70;1.00;;;;;;6256523;22;20435;-78
2022/07/31 00:21:33;;;;;;;8.83;6.00;;;18.70;1.00;;;;;;6255151;22;20899;-79
2022/07/31 00:24:00;;;;;;;9.73;6.23;;;18.70;1.00;;;;;;6256953;22;20496;-79
2022/07/31 00:26:32;;;;;;;10.90;5.83;;;18.60;1.00;;;;;;6254864;22;20436;-79
2022/07/31 00:28:58;;;;;;;9.93;6.33;;;18.60;1.00;;;;;;6259390;22;20424;-77
2022/07/31 00:31:30;;;;;;;13.20;8.23;;;18.50;1.00;;;;;;6254002;22;20446;-80
2022/07/31 00:33:57;;;;;;;10.70;7.10;;;18.50;1.00;;;;;;6256847;22;20427;-79
2022/07/31 00:36:23;;;;;;;14.33;8.50;;;18.50;1.00;;;;;;6255219;22;20471;-78
2022/07/31 00:38:53;;;;;;;9.60;6.67;;;18.50;1.00;;;;;;6256395;22;20389;-79
2022/07/31 00:41:20;;;;;;;13.13;8.03;;;18.50;1.00;;;;;;6256195;22;20459;-77
2022/07/31 00:43:47;;;;;;;10.07;7.63;;;18.50;1.00;;;;;;6255677;22;20818;-79
2022/07/31 00:46:15;;;;;;;12.80;9.20;;;18.40;1.00;;;;;;6253996;22;20451;-79
2022/07/31 00:48:43;;;;;;;10.77;7.60;;;18.40;1.00;;;;;;6254486;22;20814;-78
2022/07/31 00:51:13;;;;;;;11.10;8.43;;;18.40;1.00;;;;;;6256458;22;20411;-79
2022/07/31 00:53:40;;;;;;;11.17;7.00;;;18.30;1.00;;;;;;6255178;22;20412;-78
2022/07/31 00:56:13;;;;;;;11.17;8.07;;;18.30;1.00;;;;;;6256135;22;20443;-80
2022/07/31 00:58:40;;;;;;;12.53;8.37;;;18.20;1.00;;;;;;6285587;22;20423;-78
2022/07/31 01:01:12;;;;;;;11.77;8.40;;;18.20;1.00;;;;;;6285756;22;20446;-78
2022/07/31 01:03:39;;;;;;;12.37;8.47;;;18.20;1.00;;;;;;6285048;22;20417;-78
2022/07/31 01:06:08;;;;;;;11.97;8.00;;;18.10;1.00;;;;;;6286904;22;20442;-78
2022/07/31 01:08:35;;;;;;;13.83;8.37;;;18.10;1.00;;;;;;6285151;22;20415;-78
2022/07/31 01:11:12;;;;;;;11.67;7.63;;;18.10;1.00;;;;;;6285377;22;21043;-77
2022/07/31 01:13:45;;;;;;;12.07;9.03;;;18.10;1.00;;;;;;6285322;22;20423;-78
2022/07/31 01:16:15;;;;;;;10.70;7.67;;;18.00;1.00;;;;;;6284132;22;20462;-79
2022/07/31 01:18:44;;;;;;;11.57;8.00;;;18.10;1.00;;;;;;6284814;22;20505;-79
2022/07/31 01:21:23;;;;;;;12.70;8.40;;;18.00;1.00;;;;;;6285643;22;20454;-78
2022/07/31 01:24:13;;;;;;;11.77;8.40;;;18.00;1.00;;;;;;6288634;22;20438;-78
2022/07/31 01:26:52;;;;;;;11.67;8.13;;;18.00;1.00;;;;;;6286879;22;21194;-78
2022/07/31 01:29:30;;;;;;;13.07;8.50;;;17.90;1.00;;;;;;6286803;22;20505;-79
2022/07/31 01:32:03;;;;;;;10.47;8.20;;;18.00;1.00;;;;;;6287096;22;20839;-79
2022/07/31 01:34:39;;;;;;;11.30;8.17;;;17.90;1.00;;;;;;6286231;22;20406;-79
2022/07/31 01:37:13;;;;;;;12.00;8.50;;;18.00;1.00;;;;;;6286583;22;20945;-80
2022/07/31 01:39:44;;;;;;;14.03;8.60;;;17.90;1.00;;;;;;6284361;22;20414;-77
2022/07/31 01:42:16;;;;;;;11.23;8.87;;;17.90;1.00;;;;;;6286992;22;20403;-78
2022/07/31 01:44:53;;;;;;;14.03;8.10;;;17.90;1.00;;;;;;6288107;22;20469;-78
2022/07/31 01:47:22;;;;;;;11.60;7.63;;;17.80;1.00;;;;;;6286571;22;20391;-79
2022/07/31 01:49:55;;;;;;;11.07;7.83;;;17.80;1.00;;;;;;6288897;22;20423;-78
2022/07/31 01:52:24;;;;;;;12.60;7.47;;;17.80;1.00;;;;;;6285086;22;20498;-79
2022/07/31 01:54:54;;;;;;;11.50;7.97;;;17.70;1.00;;;;;;6286912;22;20386;-78
2022/07/31 01:57:23;;;;;;;12.67;7.80;;;17.70;1.00;;;;;;6286209;22;20497;-79
2022/07/31 02:00:01;;;;;;;9.73;7.53;;;17.60;1.00;;;;;;6288122;22;20446;-79
2022/07/31 02:02:34;;;;;;;13.33;8.30;;;17.60;1.00;;;;;;6287327;22;20410;-79
2022/07/31 02:05:02;;;;;;;11.40;8.20;;;17.60;1.00;;;;;;6288149;22;20438;-77
2022/07/31 02:07:34;;;;;;;12.20;8.13;;;17.50;1.00;;;;;;6286840;22;20383;-78
2022/07/31 02:10:02;;;;;;;11.77;8.30;;;17.40;1.00;;;;;;6287517;22;20454;-77
2022/07/31 02:12:36;;;;;;;12.73;7.73;;;17.40;1.00;;;;;;6286844;22;20411;-76
2022/07/31 02:15:12;;;;;;;12.90;7.80;;;17.40;1.00;;;;;;6288347;22;20422;-78
2022/07/31 02:17:41;;;;;;;11.37;8.13;;;17.40;1.00;;;;;;6286204;22;20504;-77
2022/07/31 02:20:15;;;;;;;12.47;8.50;;;17.40;1.00;;;;;;6287636;22;20429;-77
2022/07/31 02:22:42;;;;;;;10.87;7.80;;;17.40;1.00;;;;;;6287817;22;20455;-79
2022/07/31 02:25:13;;;;;;;12.27;7.70;;;17.40;1.00;;;;;;6287682;22;20419;-79
2022/07/31 02:27:42;;;;;;;12.90;9.40;;;17.30;1.00;;;;;;6288230;22;20482;-79
2022/07/31 02:30:16;;;;;;;11.23;8.30;;;17.30;1.00;;;;;;6286564;22;20401;-78
2022/07/31 02:32:46;;;;;;;12.60;8.93;;;17.40;1.00;;;;;;6286056;22;20435;-77
2022/07/31 02:35:16;;;;;;;12.43;8.80;;;17.30;1.00;;;;;;6287666;22;20410;-77
2022/07/31 02:37:45;;;;;;;12.93;9.13;;;17.30;1.00;;;;;;6285735;22;20431;-77
2022/07/31 02:40:15;;;;;;;12.20;8.50;;;17.20;1.00;;;;;;6285805;22;20415;-78
2022/07/31 02:42:43;;;;;;;12.73;9.60;;;17.20;1.00;;;;;;6287629;22;20431;-78
2022/07/31 02:45:16;;;;;;;12.53;8.53;;;17.20;1.00;;;;;;6288667;22;20410;-78
2022/07/31 02:47:43;;;;;;;14.40;9.13;;;17.20;1.00;;;;;;6286725;22;20437;-78
2022/07/31 02:50:17;;;;;;;12.67;8.43;;;17.30;1.00;;;;;;6285773;22;20500;-77
2022/07/31 02:52:45;;;;;;;12.30;8.90;;;17.30;1.00;;;;;;6286158;22;20521;-80
2022/07/31 02:55:14;;;;;;;12.27;8.33;;;17.20;1.00;;;;;;6285601;22;20425;-79
2022/07/31 02:57:42;;;;;;;15.27;10.13;;;17.20;1.00;;;;;;6284240;22;20419;-79
2022/07/31 03:00:21;;;;;;;18.47;10.80;;;17.20;1.00;;;;;;6285587;22;20379;-79
2022/07/31 03:02:52;;;;;;;12.60;8.13;;;17.10;1.00;;;;;;6287460;22;20484;-79
2022/07/31 03:05:20;;;;;;;15.30;9.70;;;17.10;1.00;;;;;;6286223;22;20443;-79
2022/07/31 03:07:47;;;;;;;13.73;8.70;;;17.00;1.00;;;;;;6286298;22;20489;-79
2022/07/31 03:10:14;;;;;;;13.97;9.40;;;17.10;1.00;;;;;;6288119;22;20414;-79
2022/07/31 03:12:43;;;;;;;11.93;8.87;;;17.00;1.00;;;;;;6287506;22;20510;-79
2022/07/31 03:15:17;;;;;;;12.30;8.97;;;17.00;1.00;;;;;;6286676;22;20406;-78
2022/07/31 03:17:45;;;;;;;12.47;9.13;;;17.00;1.00;;;;;;6285538;22;20419;-78
2022/07/31 03:20:15;;;;;;;13.10;9.70;;;17.00;1.00;;;;;;6285394;22;20420;-78
2022/07/31 03:22:42;;;;;;;12.10;8.50;;;17.00;1.00;;;;;;6285694;22;20435;-78
2022/07/31 03:25:17;;;;;;;13.03;8.77;;;16.90;1.00;;;;;;6287113;22;20410;-79
2022/07/31 03:27:44;;;;;;;11.10;8.20;;;16.90;1.00;;;;;;6287380;22;21000;-80
2022/07/31 03:30:23;;;;;;;15.40;8.80;;;16.90;1.00;;;;;;6288046;22;20439;-79
2022/07/31 03:32:55;;;;;;;14.60;9.57;;;16.90;1.00;;;;;;6288068;22;20398;-78
2022/07/31 03:35:22;;;;;;;11.30;7.90;;;16.90;1.00;;;;;;6286019;22;20470;-80
2022/07/31 03:37:54;;;;;;;13.30;9.43;;;16.90;1.00;;;;;;6289568;22;20399;-78
2022/07/31 03:40:21;;;;;;;13.00;8.50;;;16.90;1.00;;;;;;6286131;22;20510;-79
2022/07/31 03:43:04;;;;;;;14.90;11.80;;;16.90;1.00;;;;;;6287466;22;20466;-78
2022/07/31 03:45:57;;;;;;;13.20;9.50;;;16.90;1.00;;;;;;6276136;22;21160;-81
2022/07/31 03:48:40;;;;;;;13.13;8.87;;;16.90;1.00;;;;;;6228003;22;20508;-77
2022/07/31 03:51:33;;;;;;;11.90;7.87;;;16.90;1.00;;;;;;6295165;22;20496;-79
2022/07/31 03:54:01;;;;;;;13.23;8.40;;;16.90;1.00;;;;;;6296091;22;20423;-78
2022/07/31 03:56:33;;;;;;;12.43;8.60;;;16.90;1.00;;;;;;6284098;22;20490;-80
2022/07/31 03:59:00;;;;;;;11.73;8.43;;;16.90;1.00;;;;;;6286722;22;20582;-79
2022/07/31 04:01:28;;;;;;;12.53;8.77;;;17.00;1.00;;;;;;6282994;22;20438;-80
2022/07/31 04:03:58;;;;;;;12.10;8.60;;;17.00;1.00;;;;;;6280976;22;20447;-79
2022/07/31 04:06:25;;;;;;;14.00;8.87;;;17.00;1.00;;;;;;6287928;22;20439;-80
2022/07/31 04:08:54;;;;;;;11.63;8.33;;;17.00;1.00;;;;;;6287550;22;20454;-80
2022/07/31 04:11:22;;;;;;;12.93;9.43;;;17.00;1.00;;;;;;6284430;22;20808;-81
2022/07/31 04:14:03;;;;;;;12.20;8.60;;;17.00;1.00;;;;;;6288540;22;20433;-80
2022/07/31 04:16:34;;;;;;;12.90;8.60;;;17.00;1.00;;;;;;6281639;22;20439;-80
2022/07/31 04:19:01;;;;;;;11.90;8.27;;;17.00;1.00;;;;;;6254707;22;20526;-79
2022/07/31 04:21:32;;;;;;;12.03;9.10;;;17.00;1.00;;;;;;6255164;22;20420;-78
2022/07/31 04:24:00;;;;;;;13.63;8.83;;;17.10;1.00;;;;;;6255261;22;21436;-78
2022/07/31 04:26:32;;;;;;;12.60;8.50;;;17.10;1.00;;;;;;6254853;22;20418;-79
2022/07/31 04:28:59;;;;;;;16.03;8.53;;;17.10;1.00;;;;;;6254122;22;20498;-78
2022/07/31 04:31:26;;;;;;;12.80;9.20;;;17.10;1.00;;;;;;6254423;22;20434;-77
2022/07/31 04:33:56;;;;;;;13.30;8.13;;;17.10;1.00;;;;;;6256557;22;20397;-79
2022/07/31 04:36:24;;;;;;;10.47;7.90;;;17.10;1.00;;;;;;6254216;22;20412;-79
2022/07/31 04:38:54;;;;;;;13.40;8.13;;;17.10;1.00;;;;;;6255849;22;20424;-78
2022/07/31 04:41:21;;;;;;;15.03;9.17;;;17.10;1.00;;;;;;6255051;22;20416;-79
2022/07/31 04:43:54;;;;;;;14.20;7.97;;;17.10;1.00;;;;;;6256043;22;20928;-80
2022/07/31 04:46:21;;;;;;;11.60;8.80;;;17.20;1.00;;;;;;6254607;22;20492;-79
2022/07/31 04:48:53;;;;;;;12.97;8.60;;;17.40;1.00;;;;;;6255991;22;20430;-79
2022/07/31 04:51:23;;;;;;;15.33;9.20;;;17.30;1.00;;;;;;6252637;22;20466;-79
2022/07/31 04:53:56;;;;;;;11.50;8.07;;;17.40;1.00;;;;;;6253414;22;20481;-80
2022/07/31 04:56:40;;;;;;;12.17;9.13;;;17.50;1.00;;;;;;6253147;22;20837;-79
2022/07/31 04:59:13;;;;;;;12.00;9.20;;;17.60;1.00;;;;;;6254291;22;20509;-79
2022/07/31 05:01:41;;;;;;;11.67;8.30;;;17.60;1.00;;;;;;6254611;22;20423;-77
2022/07/31 05:04:14;;;;;;;10.33;7.40;;;17.70;1.00;;;;;;6255921;22;20736;-79
2022/07/31 05:06:45;;;;;;;14.90;7.90;;;17.80;1.00;;;;;;6253799;22;20515;-79
2022/07/31 05:09:16;;;;;;;11.27;7.00;;;17.90;1.00;;;;;;6255244;22;20467;-78
2022/07/31 05:11:44;;;;;;;13.73;7.80;;;17.90;1.00;;;;;;6256637;22;20421;-79
2022/07/31 05:14:16;;;;;;;10.63;7.43;;;17.90;1.00;;;;;;6256118;22;20430;-79
2022/07/31 05:16:43;;;;;;;16.17;8.00;;;17.90;1.00;;;;;;6255784;22;20414;-78
2022/07/31 05:19:14;;;;;;;10.83;7.13;;;17.90;1.00;;;;;;6277259;22;20379;-80
2022/07/31 05:21:43;;;;;;;12.20;7.40;;;18.10;1.00;;;;;;6275324;22;20883;-79
2022/07/31 05:24:16;;;;;;;13.07;7.53;;;18.20;1.00;;;;;;6287481;22;20471;-79
2022/07/31 05:26:44;;;;;;;10.93;7.00;;;18.30;1.00;;;;;;6287951;22;20419;-80
2022/07/31 05:29:14;;;;;;;16.10;8.50;;;18.50;1.00;;;;;;6285871;22;20422;-79
2022/07/31 05:31:41;;;;;;;11.93;7.40;;;18.70;1.00;;;;;;6286806;22;20821;-78
2022/07/31 05:34:14;;;;;;;12.13;7.30;;;18.70;1.00;;;;;;6285551;22;20427;-80
2022/07/31 05:36:42;;;;;;;10.60;6.10;;;18.80;1.00;;;;;;6284741;22;20423;-79
2022/07/31 05:39:13;;;;;;;10.20;6.40;;;18.90;1.00;;;;;;6284711;22;20469;-79
2022/07/31 05:41:40;;;;;;;10.77;6.57;;;19.10;1.00;;;;;;6286588;22;21045;-78
2022/07/31 05:44:07;;;;;;;9.63;6.13;;;19.20;1.00;;;;;;6287059;22;20455;-78
2022/07/31 05:46:35;;;;;;;11.97;6.83;;;19.40;1.00;;;;;;6286312;22;20440;-78
2022/07/31 05:49:01;;;;;;;9.53;6.00;;;19.50;1.00;;;;;;6285224;22;20427;-80
2022/07/31 05:51:37;;;;;;;13.23;7.60;;;19.70;1.00;;;;;;6285070;22;20412;-80
2022/07/31 05:54:05;;;;;;;10.13;5.90;;;19.80;1.00;;;;;;6283291;22;20439;-80
2022/07/31 05:56:32;;;;;;;10.37;6.03;;;19.90;1.00;;;;;;6280982;22;20411;-79
2022/07/31 05:58:59;;;;;;;9.43;6.10;;;20.10;1.00;;;;;;6283836;22;20429;-81
2022/07/31 06:01:25;;;;;;;9.30;5.67;;;20.10;1.00;;;;;;6282653;22;20462;-77
2022/07/31 06:03:55;;;;;;;10.60;6.00;;;20.10;1.00;;;;;;6287397;22;20409;-79
2022/07/31 06:06:21;;;;;;;8.40;5.60;;;20.10;1.00;;;;;;6284771;22;20429;-78
2022/07/31 06:08:53;;;;;;;11.03;6.30;;;20.30;1.00;;;;;;6285708;22;20505;-79
2022/07/31 06:11:21;;;;;;;9.80;5.67;;;20.50;1.00;;;;;;6284412;22;20439;-78
2022/07/31 06:13:55;;;;;;;10.50;5.83;;;20.60;1.00;;;;;;6288084;22;20431;-78
2022/07/31 06:16:21;;;;;;;10.77;6.20;;;20.50;1.00;;;;;;6286605;22;20765;-79
2022/07/31 06:18:53;;;;;;;11.40;6.33;;;20.50;1.00;;;;;;6285461;22;20422;-78
2022/07/31 06:21:20;;;;;;;9.03;5.87;;;20.70;1.00;;;;;;6283780;22;20573;-80
2022/07/31 06:23:47;;;;;;;9.93;6.20;;;20.70;1.00;;;;;;6288128;22;20510;-78
2022/07/31 06:26:15;;;;;;;8.83;5.70;;;20.60;1.00;;;;;;6287533;22;21171;-79
2022/07/31 06:28:43;;;;;;;11.27;5.70;;;20.60;1.00;;;;;;6284443;22;20435;-77
2022/07/31 06:31:34;;;;;;;8.40;5.20;;;20.80;1.00;;;;;;6279088;22;20391;-78
2022/07/31 06:34:01;;;;;;;9.93;6.17;;;20.90;1.00;;;;;;6247590;22;20492;-79
2022/07/31 06:36:31;;;;;;;11.17;6.10;;;20.90;1.00;;;;;;6286338;22;20506;-78
2022/07/31 06:39:00;;;;;;;10.03;6.50;;;20.90;1.00;;;;;;6286860;22;20415;-81
2022/07/31 06:41:46;;;;;;;10.67;6.50;;;21.10;1.00;;;;;;6287637;22;20427;-80
2022/07/31 06:44:18;;;;;;;10.17;6.87;;;21.20;1.00;;;;;;6287480;22;20418;-79
2022/07/31 06:46:45;;;;;;;11.63;7.80;;;21.20;1.00;;;;;;6288609;22;20415;-77
2022/07/31 06:49:15;;;;;;;10.47;7.53;;;21.30;1.00;;;;;;6284497;22;20442;-80
2022/07/31 06:51:43;;;;;;;10.80;7.33;;;21.50;1.00;;;;;;6286994;22;20550;-80
2022/07/31 06:54:14;;;;;;;11.27;6.97;;;21.50;1.00;;;;;;6284863;22;20475;-80
2022/07/31 06:56:41;;;;;;;12.87;7.53;;;21.60;1.00;;;;;;6285306;22;20881;-78
2022/07/31 06:59:08;;;;;;;9.90;6.43;;;21.70;1.00;;;;;;6284251;22;20427;-78
2022/07/31 07:01:39;;;;;;;11.30;7.30;;;21.80;1.00;;;;;;6271471;22;20443;-78
2022/07/31 07:04:06;;;;;;;9.90;7.37;;;21.90;1.00;;;;;;6287135;22;20435;-80
2022/07/31 07:06:35;;;;;;;10.53;7.50;;;21.90;1.00;;;;;;6287247;22;20411;-78
2022/07/31 07:09:05;;;;;;;8.87;7.27;;;22.10;1.00;;;;;;6288579;22;20455;-81
2022/07/31 07:11:34;;;;;;;10.40;7.20;;;22.10;1.00;;;;;;6285793;22;20499;-80
2022/07/31 07:14:04;;;;;;;10.77;8.70;;;22.20;1.00;;;;;;6287832;22;20423;-81
2022/07/31 07:16:31;;;;;;;13.20;11.40;;;22.30;1.00;;;;;;6285559;22;20418;-77
2022/07/31 07:19:04;;;;;;;14.27;9.10;;;22.30;1.00;;;;;;6286622;22;20489;-77
2022/07/31 07:21:35;;;;;;;11.77;9.57;;;22.40;1.00;;;;;;6284040;22;20418;-78
2022/07/31 07:24:02;;;;;;;14.57;9.80;;;22.50;1.00;;;;;;6287699;22;21012;-79
2022/07/31 07:26:40;;;;;;;12.97;10.60;;;22.50;1.00;;;;;;6287013;22;20541;-79
2022/07/31 07:29:06;;;;;;;12.83;10.40;;;22.70;1.00;;;;;;6270809;22;20865;-78
2022/07/31 07:31:35;;;;;;;12.27;10.10;;;22.80;1.00;;;;;;6271449;22;20404;-76
2022/07/31 07:34:05;;;;;;;12.47;9.87;;;22.80;1.00;;;;;;6257144;22;20530;-80
2022/07/31 07:36:35;;;;;;;13.77;9.07;;;22.80;1.00;;;;;;6244569;22;20566;-78
2022/07/31 07:39:02;;;;;;;11.40;8.53;;;22.90;1.00;;;;;;6275007;22;20435;-78
2022/07/31 07:41:37;;;;;;;11.70;8.43;;;23.00;1.00;;;;;;6255575;22;20432;-80
2022/07/31 07:44:05;;;;;;;11.03;7.47;;;23.10;1.00;;;;;;6253380;22;20759;-79
2022/07/31 07:46:35;;;;;;;13.10;7.80;;;23.20;1.00;;;;;;6255902;22;20385;-79
2022/07/31 07:49:05;;;;;;;10.70;6.97;;;23.30;1.00;;;;;;6254280;22;20460;-80
2022/07/31 07:51:35;;;;;;;10.80;6.00;;;23.40;1.00;;;;;;6255564;22;20417;-78
2022/07/31 07:54:02;;;;;;;9.10;5.77;;;23.40;1.00;;;;;;6255336;22;20439;-82
2022/07/31 07:56:30;;;;;;;9.03;6.10;;;23.60;1.00;;;;;;6255479;22;20385;-82
2022/07/31 07:58:57;;;;;;;11.40;6.10;;;23.70;1.00;;;;;;6271833;22;20941;-81
2022/07/31 08:01:25;;;;;;;9.20;5.60;;;23.80;1.00;;;;;;6272149;22;20509;-80
2022/07/31 08:03:55;;;;;;;9.40;6.23;;;23.90;1.00;;;;;;6289761;22;20404;-79
2022/07/31 08:06:23;;;;;;;9.00;5.97;;;23.90;1.00;;;;;;6284738;22;20880;-82
2022/07/31 08:08:55;;;;;;;10.60;6.23;;;24.10;1.00;;;;;;6287614;22;20442;-82
2022/07/31 08:11:21;;;;;;;8.30;5.73;;;24.30;1.00;;;;;;6286731;22;20888;-79
2022/07/31 08:13:51;;;;;;;7.80;5.40;;;24.40;1.00;;;;;;6288486;22;20427;-81
2022/07/31 08:16:22;;;;;;;9.70;5.83;;;24.40;1.00;;;;;;6287172;22;20814;-80
2022/07/31 08:18:54;;;;;;;10.10;5.80;;;24.60;1.00;;;;;;6287710;22;20425;-82
2022/07/31 08:21:21;;;;;;;9.17;5.20;;;24.80;1.00;;;;;;6285916;22;20423;-82
2022/07/31 08:23:54;;;;;;;8.77;5.63;;;25.00;1.00;;;;;;6286334;22;20431;-81
2022/07/31 08:26:21;;;;;;;7.70;5.00;;;25.10;1.00;;;;;;6284877;22;20399;-81
2022/07/31 08:28:48;;;;;;;9.40;5.93;;;25.20;1.00;;;;;;6286050;22;20795;-81
2022/07/31 08:31:15;;;;;;;7.50;5.27;;;25.20;1.00;;;;;;6286158;22;20498;-82
2022/07/31 08:33:46;;;;;;;9.03;5.90;;;25.20;1.00;;;;;;6286119;22;21140;-82
2022/07/31 08:36:14;;;;;;;9.30;6.20;;;25.30;1.00;;;;;;6286874;22;20411;-82
2022/07/31 08:38:44;;;;;;;9.43;5.57;;;25.30;1.00;;;;;;6286962;22;20401;-82
2022/07/31 08:41:17;;;;;;;8.90;6.10;;;25.40;1.00;;;;;;6286286;22;20403;-82
2022/07/31 08:43:43;;;;;;;11.47;5.77;;;25.40;1.00;;;;;;6287730;22;20449;-82
2022/07/31 08:46:18;;;;;;;8.70;5.90;;;25.50;1.00;;;;;;6286464;22;20403;-81
2022/07/31 08:48:45;;;;;;;10.20;6.40;;;25.60;1.00;;;;;;6288135;22;20451;-81
2022/07/31 08:51:16;;;;;;;8.67;6.40;;;25.70;1.00;;;;;;6286712;22;20388;-81
2022/07/31 08:53:44;;;;;;;6.90;5.50;;;25.70;1.00;;;;;;6288324;22;20423;-81
2022/07/31 08:56:20;;;;;;;8.67;6.23;;;25.80;1.00;;;;;;6287743;22;20469;-82
2022/07/31 08:58:47;;;;;;;8.33;6.50;;;25.90;1.00;;;;;;6288002;22;20884;-82
2022/07/31 09:01:17;;;;;;;9.17;6.40;;;26.00;1.00;;;;;;6286097;22;20467;-81
2022/07/31 09:03:44;;;;;;;9.57;6.43;;;26.10;1.00;;;;;;6289881;22;20469;-82
2022/07/31 09:06:15;;;;;;;9.07;5.60;;;26.10;1.00;;;;;;6287957;22;20395;-82
2022/07/31 09:08:42;;;;;;;10.13;6.30;;;26.20;1.00;;;;;;6290350;22;20400;-81
2022/07/31 09:11:15;;;;;;;6.90;5.50;;;26.20;1.00;;;;;;6287251;22;20413;-80
2022/07/31 09:13:55;;;;;;;8.40;5.93;;;26.30;1.00;;;;;;6287679;22;20489;-82
2022/07/31 09:16:24;;;;;;;9.63;5.97;;;26.40;1.00;;;;;;6285741;22;20829;-81
2022/07/31 09:18:58;;;;;;;7.50;5.50;;;26.50;1.00;;;;;;6288035;22;20397;-81
2022/07/31 09:21:26;;;;;;;7.70;5.20;;;26.60;1.00;;;;;;6285834;22;20853;-83
2022/07/31 09:23:59;;;;;;;8.10;5.10;;;26.70;1.00;;;;;;6288232;22;20407;-82
2022/07/31 09:26:35;;;;;;;8.73;5.37;;;26.80;1.00;;;;;;6287224;22;20415;-82
2022/07/31 09:29:07;;;;;;;8.00;5.33;;;26.80;1.00;;;;;;6288534;22;20415;-82
2022/07/31 09:31:36;;;;;;;6.97;5.37;;;27.00;1.00;;;;;;6289977;22;20402;-80
2022/07/31 09:34:03;;;;;;;7.83;5.00;;;27.20;1.00;;;;;;6290180;22;20916;-81
2022/07/31 09:36:36;;;;;;;7.83;5.63;;;27.60;1.00;;;;;;6289182;22;20398;-83
2022/07/31 09:39:15;;;;;;;6.80;4.30;;;28.60;1.00;;;;;;6289033;22;20448;-82
2022/07/31 09:42:00;;;;;;;7.57;5.00;;;30.40;1.00;;;;;;6288433;22;20487;-82
2022/07/31 09:44:39;;;;;;;6.83;4.30;;;32.00;1.00;;;;;;6288306;22;20435;-81
2022/07/31 09:47:06;;;;;;;7.10;4.20;;;33.20;1.00;;;;;;6290046;22;20399;-81
2022/07/31 09:49:36;;;;;;;8.33;4.30;;;34.00;1.00;;;;;;6289488;22;20421;-83
2022/07/31 09:52:04;;;;;;;6.67;3.80;;;34.80;1.00;;;;;;6290469;22;20443;-83
2022/07/31 09:54:35;;;;;;;6.03;3.50;;;35.40;1.00;;;;;;6287937;22;20391;-83
2022/07/31 09:57:16;;;;;;;5.03;3.90;;;35.90;1.00;;;;;;6290677;22;20411;-80
2022/07/31 09:59:44;;;;;;;5.77;3.90;;;36.50;1.00;;;;;;6289356;22;20497;-81
2022/07/31 10:02:18;;;;;;;6.20;3.37;;;36.80;1.00;;;;;;6289442;22;20383;-82
2022/07/31 10:04:46;;;;;;;6.50;4.20;;;37.10;1.00;;;;;;6289786;22;20427;-82
2022/07/31 10:07:18;;;;;;;10.20;3.93;;;37.40;1.00;;;;;;6289915;22;20477;-82
2022/07/31 10:09:46;;;;;;;4.53;3.50;;;37.80;1.00;;;;;;6289758;22;20451;-82
2022/07/31 10:12:19;;;;;;;5.27;3.37;;;38.20;1.00;;;;;;6289280;22;20458;-83
2022/07/31 10:14:55;;;;;;;5.60;4.10;;;38.40;1.00;;;;;;6289888;22;20960;-82
2022/07/31 10:17:27;;;;;;;5.30;3.90;;;38.10;1.00;;;;;;6288670;22;20407;-81
2022/07/31 10:20:04;;;;;;;7.77;3.97;;;38.50;1.00;;;;;;6291130;22;20462;-81
2022/07/31 10:22:55;;;;;;;6.83;4.43;;;38.60;1.00;;;;;;6288740;22;20402;-82
2022/07/31 10:25:25;;;;;;;11.23;8.30;;;38.50;1.00;;;;;;6289591;22;20427;-82
2022/07/31 10:27:57;;;;;;;5.13;3.73;;;38.80;1.00;;;;;;6290869;22;20404;-79
2022/07/31 10:30:26;;;;;;;5.50;4.03;;;39.10;1.00;;;;;;6286748;22;20419;-82
2022/07/31 10:32:57;;;;;;;8.40;4.97;;;39.30;1.00;;;;;;6288480;22;20580;-80
2022/07/31 10:35:24;;;;;;;8.80;7.20;;;39.70;1.00;;;;;;6292221;22;20435;-82
2022/07/31 10:38:01;;;;;;;5.40;3.90;;;39.80;1.00;;;;;;6289980;22;20415;-79
2022/07/31 10:40:39;;;;;;;6.30;4.70;;;39.80;1.00;;;;;;6290395;22;20469;-82
2022/07/31 10:43:19;;;;;;;5.20;3.87;;;40.20;1.00;;;;;;6287783;22;20494;-82
2022/07/31 10:45:50;;;;;;;4.97;3.90;;;40.40;1.00;;;;;;6288731;22;20443;-80
2022/07/31 10:48:18;;;;;;;5.50;4.07;;;40.60;1.00;;;;;;6288489;22;20427;-80
2022/07/31 10:50:45;;;;;;;5.63;3.80;;;40.50;1.00;;;;;;6288945;22;20418;-80
2022/07/31 10:53:18;;;;;;;6.80;4.33;;;40.60;1.00;;;;;;6289859;22;20397;-82
2022/07/31 10:55:45;;;;;;;5.40;3.63;;;40.50;1.00;;;;;;6288107;22;20407;-81
2022/07/31 10:58:18;;;;;;;5.40;3.63;;;40.40;1.00;;;;;;6281455;22;20510;-82
2022/07/31 11:00:47;;;;;;;5.70;3.77;;;40.80;1.00;;;;;;6288609;22;20481;-81
2022/07/31 11:03:19;;;;;;;6.03;3.50;;;41.10;1.00;;;;;;6288381;22;20387;-83
2022/07/31 11:05:58;;;;;;;6.00;3.83;;;41.10;1.00;;;;;;6288814;22;20470;-81
2022/07/31 11:08:26;;;;;;;5.90;4.80;;;41.30;1.00;;;;;;6288139;22;20558;-82
2022/07/31 11:10:59;;;;;;;6.30;3.97;;;41.50;1.00;;;;;;6290587;22;20439;-84
2022/07/31 11:13:28;;;;;;;4.70;3.20;;;41.70;1.00;;;;;;6287977;22;20506;-82
2022/07/31 11:16:06;;;;;;;7.90;3.83;;;41.70;1.00;;;;;;6289855;22;20455;-81
2022/07/31 11:18:37;;;;;;;9.37;4.80;;;41.90;1.00;;;;;;6287417;22;20380;-82
2022/07/31 11:21:07;;;;;;;5.67;3.90;;;41.70;1.00;;;;;;6289292;22;20415;-81
2022/07/31 11:23:36;;;;;;;5.70;3.73;;;42.10;1.00;;;;;;6288955;22;20447;-82
2022/07/31 11:26:05;;;;;;;5.60;3.60;;;42.40;1.00;;;;;;6287091;22;20434;-81
2022/07/31 11:28:36;;;;;;;4.53;3.40;;;42.40;1.00;;;;;;6287201;22;20454;-82
2022/07/31 11:31:04;;;;;;;4.30;3.27;;;42.40;1.00;;;;;;6288256;22;20406;-79
2022/07/31 11:33:40;;;;;;;5.60;3.40;;;42.20;1.00;;;;;;6286186;22;20577;-82
2022/07/31 11:36:16;;;;;;;4.77;4.27;;;42.10;1.00;;;;;;6284115;22;20802;-83
2022/07/31 11:39:02;;;;;;;4.63;3.60;;;41.70;1.00;;;;;;6253487;22;20852;-82
2022/07/31 11:41:47;;;;;;;4.73;3.43;;;41.50;1.00;;;;;;6233393;22;20459;-83
2022/07/31 11:44:20;;;;;;;4.30;3.90;;;40.90;1.00;;;;;;6255566;22;21188;-83
2022/07/31 11:46:55;;;;;;;8.30;4.47;;;39.40;1.00;;;;;;6255824;22;20430;-84
2022/07/31 11:49:24;;;;;;;6.80;3.57;;;39.10;1.00;;;;;;6255804;22;20868;-83
2022/07/31 11:52:00;;;;;;;4.30;3.73;;;39.80;1.00;;;;;;6259379;22;20404;-81
2022/07/31 11:54:28;;;;;;;4.10;3.67;;;40.40;1.00;;;;;;6258617;22;20522;-83
2022/07/31 11:57:00;;;;;;;5.43;4.40;;;40.80;1.00;;;;;;6258581;22;20488;-81
2022/07/31 11:59:34;;;;;;;6.23;4.57;;;41.20;1.00;;;;;;6256893;22;20412;-83
2022/07/31 12:02:06;;;;;;;4.77;4.30;;;40.90;1.00;;;;;;6252755;22;20420;-84
2022/07/31 12:04:36;;;;;;;4.73;3.73;;;41.60;1.00;;;;;;6258028;22;20865;-85
2022/07/31 12:07:06;;;;;;;4.90;4.00;;;42.50;1.00;;;;;;6259411;22;20399;-83
2022/07/31 12:09:36;;;;;;;4.20;3.70;;;43.10;1.00;;;;;;6259873;22;20400;-84
2022/07/31 12:12:05;;;;;;;4.90;3.63;;;42.90;1.00;;;;;;6260164;22;20506;-83
2022/07/31 12:14:37;;;;;;;10.57;4.57;;;41.70;1.00;;;;;;6257252;22;20407;-81
2022/07/31 12:17:05;;;;;;;5.50;4.13;;;39.70;1.00;;;;;;6258628;22;20841;-81
2022/07/31 12:19:42;;;;;;;4.80;3.53;;;38.00;1.00;;;;;;6251112;22;20372;-81
2022/07/31 12:22:17;;;;;;;4.90;3.63;;;37.70;1.00;;;;;;6254206;22;20474;-81
2022/07/31 12:24:45;;;;;;;5.10;4.60;;;38.60;1.00;;;;;;6256538;22;21179;-79
2022/07/31 12:27:15;;;;;;;4.97;3.90;;;39.10;1.00;;;;;;6254671;22;20511;-85
2022/07/31 12:29:49;;;;;;;7.03;3.87;;;39.80;1.00;;;;;;6257149;22;20384;-85
2022/07/31 12:32:26;;;;;;;4.93;3.20;;;40.10;1.00;;;;;;6256790;22;20423;-85
2022/07/31 12:35:34;;;;;;;5.67;3.93;;;40.20;1.00;;;;;;6255542;22;20442;-80
2022/07/31 12:38:06;;;;;;;6.03;4.10;;;40.10;1.00;;;;;;6262152;22;20399;-82
2022/07/31 12:40:33;;;;;;;4.50;3.80;;;38.30;1.00;;;;;;6255052;22;20428;-83
2022/07/31 12:43:06;;;;;;;6.97;4.20;;;36.70;1.00;;;;;;6258614;22;20422;-83
2022/07/31 12:45:35;;;;;;;7.40;4.47;;;35.10;1.00;;;;;;6258152;22;20519;-81
2022/07/31 12:48:06;;;;;;;7.57;4.17;;;34.10;1.00;;;;;;6260272;22;20396;-85
2022/07/31 12:50:34;;;;;;;8.20;4.30;;;33.10;1.00;;;;;;6257074;22;20440;-81
2022/07/31 12:53:06;;;;;;;7.03;4.83;;;32.40;1.00;;;;;;6256033;22;20423;-80
2022/07/31 12:55:34;;;;;;;6.00;4.43;;;31.80;1.00;;;;;;6257229;22;20416;-84
2022/07/31 12:58:10;;;;;;;7.10;4.33;;;31.20;1.00;;;;;;6257723;22;20438;-82
2022/07/31 13:00:37;;;;;;;7.17;5.00;;;30.80;1.00;;;;;;6259194;22;20511;-81
2022/07/31 13:03:08;;;;;;;6.80;4.50;;;30.50;1.00;;;;;;6258978;22;20404;-80
2022/07/31 13:05:37;;;;;;;7.33;4.50;;;30.40;1.00;;;;;;6289735;22;20929;-82
2022/07/31 13:08:07;;;;;;;6.53;4.93;;;30.20;1.00;;;;;;6287295;22;20548;-80
2022/07/31 13:10:36;;;;;;;6.60;5.00;;;30.10;1.00;;;;;;6282129;22;20423;-79